sensor_id;sensor_type;location;lat;lon;timestamp;pressure;altitude;pressure_sealevel;temperature
34310;BMP280;61664;48.112;11.662;2023-04-24T00:01:56;94645.81;;;12.94
34310;BMP280;61664;48.112;11.662;2023-04-24T00:04:25;94637.28;;;12.96
34310;BMP280;61664;48.112;11.662;2023-04-24T00:06:53;94635.34;;;12.96
34310;BMP280;61664;48.112;11.662;2023-04-24T00:09:24;94621.94;;;12.96
34310;BMP280;61664;48.112;11.662;2023-04-24T00:11:51;94621.66;;;13.00
34310;BMP280;61664;48.112;11.662;2023-04-24T00:14:18;94628.75;;;13.03
34310;BMP280;61664;48.112;11.662;2023-04-24T00:16:45;94621.19;;;13.01
34310;BMP280;61664;48.112;11.662;2023-04-24T00:19:12;94617.03;;;13.00
34310;BMP280;61664;48.112;11.662;2023-04-24T00:21:40;94601.47;;;12.87
34310;BMP280;61664;48.112;11.662;2023-04-24T00:24:08;94615.56;;;12.99
34310;BMP280;61664;48.112;11.662;2023-04-24T00:26:37;94614.09;;;12.98
34310;BMP280;61664;48.112;11.662;2023-04-24T00:29:04;94598.28;;;12.89
34310;BMP280;61664;48.112;11.662;2023-04-24T00:31:31;94589.31;;;12.81
34310;BMP280;61664;48.112;11.662;2023-04-24T00:34:02;94618.25;;;12.99
34310;BMP280;61664;48.112;11.662;2023-04-24T00:36:29;94608.28;;;12.94
34310;BMP280;61664;48.112;11.662;2023-04-24T00:38:57;94618.50;;;13.01
34310;BMP280;61664;48.112;11.662;2023-04-24T00:41:27;94616.78;;;13.04
34310;BMP280;61664;48.112;11.662;2023-04-24T00:43:54;94605.81;;;12.90
34310;BMP280;61664;48.112;11.662;2023-04-24T00:46:21;94611.91;;;12.97
34310;BMP280;61664;48.112;11.662;2023-04-24T00:48:48;94607.78;;;12.96
34310;BMP280;61664;48.112;11.662;2023-04-24T00:51:16;94601.94;;;12.86
34310;BMP280;61664;48.112;11.662;2023-04-24T00:53:43;94592.44;;;12.79
34310;BMP280;61664;48.112;11.662;2023-04-24T00:56:10;94607.78;;;12.84
34310;BMP280;61664;48.112;11.662;2023-04-24T00:58:38;94603.91;;;12.80
34310;BMP280;61664;48.112;11.662;2023-04-24T01:01:06;94589.81;;;12.74
34310;BMP280;61664;48.112;11.662;2023-04-24T01:03:35;94610.00;;;12.80
34310;BMP280;61664;48.112;11.662;2023-04-24T01:06:05;94587.59;;;12.72
34310;BMP280;61664;48.112;11.662;2023-04-24T01:08:34;94603.69;;;12.72
34310;BMP280;61664;48.112;11.662;2023-04-24T01:11:03;94607.84;;;12.68
34310;BMP280;61664;48.112;11.662;2023-04-24T01:13:32;94604.91;;;12.60
34310;BMP280;61664;48.112;11.662;2023-04-24T01:16:00;94588.59;;;12.47
34310;BMP280;61664;48.112;11.662;2023-04-24T01:18:28;94600.53;;;12.51
34310;BMP280;61664;48.112;11.662;2023-04-24T01:20:59;94602.94;;;12.49
34310;BMP280;61664;48.112;11.662;2023-04-24T01:23:26;94584.97;;;12.44
34310;BMP280;61664;48.112;11.662;2023-04-24T01:25:53;94594.94;;;12.44
34310;BMP280;61664;48.112;11.662;2023-04-24T01:28:21;94586.69;;;12.42
34310;BMP280;61664;48.112;11.662;2023-04-24T01:30:48;94598.31;;;12.50
34310;BMP280;61664;48.112;11.662;2023-04-24T01:33:16;94607.59;;;12.54
34310;BMP280;61664;48.112;11.662;2023-04-24T01:35:43;94594.44;;;12.51
34310;BMP280;61664;48.112;11.662;2023-04-24T01:38:10;94592.50;;;12.46
34310;BMP280;61664;48.112;11.662;2023-04-24T01:40:37;94597.84;;;12.46
34310;BMP280;61664;48.112;11.662;2023-04-24T01:43:05;94588.84;;;12.38
34310;BMP280;61664;48.112;11.662;2023-04-24T01:45:32;94603.47;;;12.42
34310;BMP280;61664;48.112;11.662;2023-04-24T01:48:00;94587.16;;;12.35
34310;BMP280;61664;48.112;11.662;2023-04-24T01:50:27;94590.53;;;12.30
34310;BMP280;61664;48.112;11.662;2023-04-24T01:52:54;94596.41;;;12.34
34310;BMP280;61664;48.112;11.662;2023-04-24T01:55:21;94581.56;;;12.21
34310;BMP280;61664;48.112;11.662;2023-04-24T01:57:49;94593.69;;;12.28
34310;BMP280;61664;48.112;11.662;2023-04-24T02:00:16;94582.75;;;12.20
34310;BMP280;61664;48.112;11.662;2023-04-24T02:02:44;94590.31;;;12.22
34310;BMP280;61664;48.112;11.662;2023-04-24T02:05:14;94585.19;;;12.18
34310;BMP280;61664;48.112;11.662;2023-04-24T02:07:41;94597.34;;;12.31
34310;BMP280;61664;48.112;11.662;2023-04-24T02:10:09;94598.59;;;12.35
34310;BMP280;61664;48.112;11.662;2023-04-24T02:12:36;94600.78;;;12.37
34310;BMP280;61664;48.112;11.662;2023-04-24T02:15:04;94588.38;;;12.34
34310;BMP280;61664;48.112;11.662;2023-04-24T02:17:31;94570.84;;;12.21
34310;BMP280;61664;48.112;11.662;2023-04-24T02:19:58;94583.00;;;12.28
34310;BMP280;61664;48.112;11.662;2023-04-24T02:22:24;94593.00;;;12.28
34310;BMP280;61664;48.112;11.662;2023-04-24T02:24:51;94595.69;;;12.28
34310;BMP280;61664;48.112;11.662;2023-04-24T02:27:18;94589.34;;;12.25
34310;BMP280;61664;48.112;11.662;2023-04-24T02:29:45;94579.84;;;12.18
34310;BMP280;61664;48.112;11.662;2023-04-24T02:32:12;94583.25;;;12.19
34310;BMP280;61664;48.112;11.662;2023-04-24T02:34:39;94571.09;;;12.12
34310;BMP280;61664;48.112;11.662;2023-04-24T02:37:06;94582.03;;;12.20
34310;BMP280;61664;48.112;11.662;2023-04-24T02:39:33;94591.56;;;12.21
34310;BMP280;61664;48.112;11.662;2023-04-24T02:42:00;94585.44;;;12.20
34310;BMP280;61664;48.112;11.662;2023-04-24T02:44:28;94569.63;;;12.06
34310;BMP280;61664;48.112;11.662;2023-04-24T02:46:55;94591.31;;;12.13
34310;BMP280;61664;48.112;11.662;2023-04-24T02:49:21;94580.59;;;12.13
34310;BMP280;61664;48.112;11.662;2023-04-24T02:51:48;94586.91;;;12.16
34310;BMP280;61664;48.112;11.662;2023-04-24T02:54:15;94597.59;;;12.16
34310;BMP280;61664;48.112;11.662;2023-04-24T02:56:42;94589.56;;;12.10
34310;BMP280;61664;48.112;11.662;2023-04-24T02:59:09;94576.88;;;12.00
34310;BMP280;61664;48.112;11.662;2023-04-24T03:01:37;94592.25;;;12.05
34310;BMP280;61664;48.112;11.662;2023-04-24T03:04:03;94582.97;;;11.95
34310;BMP280;61664;48.112;11.662;2023-04-24T03:06:31;94592.72;;;11.98
34310;BMP280;61664;48.112;11.662;2023-04-24T03:08:59;94578.34;;;11.84
34310;BMP280;61664;48.112;11.662;2023-04-24T03:11:26;94588.34;;;11.83
34310;BMP280;61664;48.112;11.662;2023-04-24T03:13:53;94583.19;;;11.80
34310;BMP280;61664;48.112;11.662;2023-04-24T03:16:20;94590.28;;;11.83
34310;BMP280;61664;48.112;11.662;2023-04-24T03:18:47;94578.09;;;11.76
34310;BMP280;61664;48.112;11.662;2023-04-24T03:21:13;94578.31;;;11.73
34310;BMP280;61664;48.112;11.662;2023-04-24T03:23:40;94596.31;;;11.78
34310;BMP280;61664;48.112;11.662;2023-04-24T03:26:07;94597.31;;;11.75
34310;BMP280;61664;48.112;11.662;2023-04-24T03:28:34;94595.59;;;11.77
34310;BMP280;61664;48.112;11.662;2023-04-24T03:31:03;94591.22;;;11.80
34310;BMP280;61664;48.112;11.662;2023-04-24T03:33:30;94603.13;;;11.79
34310;BMP280;61664;48.112;11.662;2023-04-24T03:35:57;94586.84;;;11.71
34310;BMP280;61664;48.112;11.662;2023-04-24T03:38:23;94600.72;;;11.75
34310;BMP280;61664;48.112;11.662;2023-04-24T03:40:50;94603.13;;;11.79
34310;BMP280;61664;48.112;11.662;2023-04-24T03:43:17;94601.66;;;11.78
34310;BMP280;61664;48.112;11.662;2023-04-24T03:45:44;94582.69;;;11.65
34310;BMP280;61664;48.112;11.662;2023-04-24T03:48:11;94598.28;;;11.72
34310;BMP280;61664;48.112;11.662;2023-04-24T03:50:38;94604.34;;;11.72
34310;BMP280;61664;48.112;11.662;2023-04-24T03:53:05;94604.34;;;11.72
34310;BMP280;61664;48.112;11.662;2023-04-24T03:55:31;94595.84;;;11.74
34310;BMP280;61664;48.112;11.662;2023-04-24T03:57:58;94591.22;;;11.74
34310;BMP280;61664;48.112;11.662;2023-04-24T04:00:25;94587.09;;;11.73
34310;BMP280;61664;48.112;11.662;2023-04-24T04:02:52;94574.66;;;11.65
34310;BMP280;61664;48.112;11.662;2023-04-24T04:05:20;94583.69;;;11.73
34310;BMP280;61664;48.112;11.662;2023-04-24T04:07:47;94576.63;;;11.75
34310;BMP280;61664;48.112;11.662;2023-04-24T04:10:14;94575.41;;;11.71
34310;BMP280;61664;48.112;11.662;2023-04-24T04:12:41;94578.56;;;11.80
34310;BMP280;61664;48.112;11.662;2023-04-24T04:15:08;94581.72;;;11.79
34310;BMP280;61664;48.112;11.662;2023-04-24T04:17:35;94579.56;;;11.77
34310;BMP280;61664;48.112;11.662;2023-04-24T04:20:02;94570.53;;;11.69
34310;BMP280;61664;48.112;11.662;2023-04-24T04:22:33;94576.88;;;11.72
34310;BMP280;61664;48.112;11.662;2023-04-24T04:25:00;94566.16;;;11.72
34310;BMP280;61664;48.112;11.662;2023-04-24T04:27:27;94577.84;;;11.80
34310;BMP280;61664;48.112;11.662;2023-04-24T04:29:55;94581.72;;;11.79
34310;BMP280;61664;48.112;11.662;2023-04-24T04:32:23;94583.91;;;11.80
34310;BMP280;61664;48.112;11.662;2023-04-24T04:34:50;94590.03;;;11.81
34310;BMP280;61664;48.112;11.662;2023-04-24T04:37:19;94584.41;;;11.79
34310;BMP280;61664;48.112;11.662;2023-04-24T04:39:47;94582.72;;;11.76
34310;BMP280;61664;48.112;11.662;2023-04-24T04:42:14;94590.28;;;11.83
34310;BMP280;61664;48.112;11.662;2023-04-24T04:44:42;94585.19;;;11.85
34310;BMP280;61664;48.112;11.662;2023-04-24T04:47:09;94590.25;;;11.88
34310;BMP280;61664;48.112;11.662;2023-04-24T04:49:38;94598.31;;;11.94
34310;BMP280;61664;48.112;11.662;2023-04-24T04:52:06;94573.22;;;11.80
34310;BMP280;61664;48.112;11.662;2023-04-24T04:54:32;94595.63;;;11.94
34310;BMP280;61664;48.112;11.662;2023-04-24T04:56:59;94585.88;;;11.80
34310;BMP280;61664;48.112;11.662;2023-04-24T04:59:29;94596.34;;;11.89
34310;BMP280;61664;48.112;11.662;2023-04-24T05:01:56;94595.63;;;11.88
34310;BMP280;61664;48.112;11.662;2023-04-24T05:04:23;94602.69;;;11.97
34310;BMP280;61664;48.112;11.662;2023-04-24T05:06:50;94611.72;;;12.05
34310;BMP280;61664;48.112;11.662;2023-04-24T05:09:18;94608.31;;;12.05
34310;BMP280;61664;48.112;11.662;2023-04-24T05:11:45;94618.28;;;12.15
34310;BMP280;61664;48.112;11.662;2023-04-24T05:14:12;94621.47;;;12.19
34310;BMP280;61664;48.112;11.662;2023-04-24T05:16:42;94618.06;;;12.19
34310;BMP280;61664;48.112;11.662;2023-04-24T05:19:09;94619.28;;;12.29
34310;BMP280;61664;48.112;11.662;2023-04-24T05:21:35;94614.19;;;12.26
34310;BMP280;61664;48.112;11.662;2023-04-24T05:24:03;94632.69;;;12.35
34310;BMP280;61664;48.112;11.662;2023-04-24T05:26:29;94611.50;;;12.20
34310;BMP280;61664;48.112;11.662;2023-04-24T05:28:57;94629.50;;;12.31
34310;BMP280;61664;48.112;11.662;2023-04-24T05:31:24;94613.91;;;12.18
34310;BMP280;61664;48.112;11.662;2023-04-24T05:33:52;94623.91;;;12.23
34310;BMP280;61664;48.112;11.662;2023-04-24T05:36:18;94624.88;;;12.20
34310;BMP280;61664;48.112;11.662;2023-04-24T05:38:46;94619.78;;;12.22
34310;BMP280;61664;48.112;11.662;2023-04-24T05:41:13;94626.81;;;12.36
34310;BMP280;61664;48.112;11.662;2023-04-24T05:43:39;94632.91;;;12.37
34310;BMP280;61664;48.112;11.662;2023-04-24T05:46:06;94627.31;;;12.40
34310;BMP280;61664;48.112;11.662;2023-04-24T05:48:33;94635.84;;;12.50
34310;BMP280;61664;48.112;11.662;2023-04-24T05:51:00;94628.53;;;12.45
34310;BMP280;61664;48.112;11.662;2023-04-24T05:53:27;94642.69;;;12.51
34310;BMP280;61664;48.112;11.662;2023-04-24T05:55:54;94630.25;;;12.48
34310;BMP280;61664;48.112;11.662;2023-04-24T05:58:21;94623.19;;;12.34
34310;BMP280;61664;48.112;11.662;2023-04-24T06:00:47;94628.09;;;12.41
34310;BMP280;61664;48.112;11.662;2023-04-24T06:03:14;94640.00;;;12.51
34310;BMP280;61664;48.112;11.662;2023-04-24T06:05:42;94642.44;;;12.54
34310;BMP280;61664;48.112;11.662;2023-04-24T06:08:09;94637.78;;;12.61
34310;BMP280;61664;48.112;11.662;2023-04-24T06:10:36;94638.53;;;12.72
34310;BMP280;61664;48.112;11.662;2023-04-24T06:13:03;94633.16;;;12.72
34310;BMP280;61664;48.112;11.662;2023-04-24T06:15:30;94629.75;;;12.72
34310;BMP280;61664;48.112;11.662;2023-04-24T06:17:57;94634.16;;;12.75
34310;BMP280;61664;48.112;11.662;2023-04-24T06:20:25;94648.00;;;12.84
34310;BMP280;61664;48.112;11.662;2023-04-24T06:22:52;94649.97;;;12.89
34310;BMP280;61664;48.112;11.662;2023-04-24T06:25:19;94635.81;;;12.83
34310;BMP280;61664;48.112;11.662;2023-04-24T06:27:46;94650.69;;;12.96
34310;BMP280;61664;48.112;11.662;2023-04-24T06:30:14;94637.78;;;12.88
34310;BMP280;61664;48.112;11.662;2023-04-24T06:32:40;94657.50;;;13.02
34310;BMP280;61664;48.112;11.662;2023-04-24T06:35:07;94651.88;;;13.06
34310;BMP280;61664;48.112;11.662;2023-04-24T06:37:36;94657.72;;;13.10
34310;BMP280;61664;48.112;11.662;2023-04-24T06:40:03;94629.44;;;13.03
34310;BMP280;61664;48.112;11.662;2023-04-24T06:42:35;94643.34;;;13.13
34310;BMP280;61664;48.112;11.662;2023-04-24T06:45:02;94648.66;;;13.18
34310;BMP280;61664;48.112;11.662;2023-04-24T06:47:29;94651.34;;;13.24
34310;BMP280;61664;48.112;11.662;2023-04-24T06:49:57;94657.91;;;13.29
34310;BMP280;61664;48.112;11.662;2023-04-24T06:52:23;94662.78;;;13.36
34310;BMP280;61664;48.112;11.662;2023-04-24T06:54:50;94644.94;;;13.38
34310;BMP280;61664;48.112;11.662;2023-04-24T07:00:07;94644.88;;;13.60
34310;BMP280;61664;48.112;11.662;2023-04-24T07:02:36;94658.69;;;13.76
34310;BMP280;61664;48.112;11.662;2023-04-24T07:05:05;94650.88;;;13.78
34310;BMP280;61664;48.112;11.662;2023-04-24T07:07:32;94659.59;;;13.95
34310;BMP280;61664;48.112;11.662;2023-04-24T07:09:58;94664.38;;;14.08
34310;BMP280;61664;48.112;11.662;2023-04-24T07:12:25;94661.66;;;14.13
34310;BMP280;61664;48.112;11.662;2023-04-24T07:14:52;94664.84;;;14.12
34310;BMP280;61664;48.112;11.662;2023-04-24T07:17:19;94661.41;;;14.17
34310;BMP280;61664;48.112;11.662;2023-04-24T07:19:46;94669.44;;;14.22
34310;BMP280;61664;48.112;11.662;2023-04-24T07:22:13;94671.81;;;14.31
34310;BMP280;61664;48.112;11.662;2023-04-24T07:24:44;94664.66;;;14.40
34310;BMP280;61664;48.112;11.662;2023-04-24T07:27:11;94673.81;;;14.55
34310;BMP280;61664;48.112;11.662;2023-04-24T07:29:38;94681.84;;;14.61
34310;BMP280;61664;48.112;11.662;2023-04-24T07:32:07;94683.22;;;14.73
34310;BMP280;61664;48.112;11.662;2023-04-24T07:34:34;94663.59;;;14.78
34310;BMP280;61664;48.112;11.662;2023-04-24T07:37:02;94677.06;;;15.02
34310;BMP280;61664;48.112;11.662;2023-04-24T07:39:28;94651.03;;;14.92
34310;BMP280;61664;48.112;11.662;2023-04-24T07:41:56;94690.41;;;15.14
34310;BMP280;61664;48.112;11.662;2023-04-24T07:44:22;94685.88;;;15.03
34310;BMP280;61664;48.112;11.662;2023-04-24T07:46:49;94679.19;;;14.85
34310;BMP280;61664;48.112;11.662;2023-04-24T07:49:16;94677.56;;;14.77
34310;BMP280;61664;48.112;11.662;2023-04-24T07:51:45;94686.38;;;14.77
34310;BMP280;61664;48.112;11.662;2023-04-24T07:54:12;94693.97;;;14.73
34310;BMP280;61664;48.112;11.662;2023-04-24T07:56:41;94695.44;;;14.74
34310;BMP280;61664;48.112;11.662;2023-04-24T07:59:10;94695.19;;;14.72
34310;BMP280;61664;48.112;11.662;2023-04-24T08:01:37;94679.16;;;14.61
34310;BMP280;61664;48.112;11.662;2023-04-24T08:04:05;94690.91;;;14.58
34310;BMP280;61664;48.112;11.662;2023-04-24T08:06:32;94701.41;;;14.61
34310;BMP280;61664;48.112;11.662;2023-04-24T08:09:00;94693.69;;;14.47
34310;BMP280;61664;48.112;11.662;2023-04-24T08:11:27;94709.53;;;14.50
34310;BMP280;61664;48.112;11.662;2023-04-24T08:13:54;94703.97;;;14.43
34310;BMP280;61664;48.112;11.662;2023-04-24T08:16:22;94709.00;;;14.57
34310;BMP280;61664;48.112;11.662;2023-04-24T08:18:51;94691.13;;;14.60
34310;BMP280;61664;48.112;11.662;2023-04-24T08:21:18;94706.19;;;14.74
34310;BMP280;61664;48.112;11.662;2023-04-24T08:23:45;94708.81;;;14.80
34310;BMP280;61664;48.112;11.662;2023-04-24T08:26:13;94715.59;;;14.86
34310;BMP280;61664;48.112;11.662;2023-04-24T08:28:40;94706.13;;;14.80
34310;BMP280;61664;48.112;11.662;2023-04-24T08:31:07;94706.38;;;14.82
34310;BMP280;61664;48.112;11.662;2023-04-24T08:33:34;94713.91;;;14.83
34310;BMP280;61664;48.112;11.662;2023-04-24T08:36:05;94707.88;;;14.77
34310;BMP280;61664;48.112;11.662;2023-04-24T08:38:33;94703.03;;;14.70
34310;BMP280;61664;48.112;11.662;2023-04-24T08:41:01;94712.19;;;14.56
34310;BMP280;61664;48.112;11.662;2023-04-24T08:43:28;94722.53;;;14.46
34310;BMP280;61664;48.112;11.662;2023-04-24T08:45:56;94732.63;;;14.35
34310;BMP280;61664;48.112;11.662;2023-04-24T08:48:24;94737.13;;;14.10
34310;BMP280;61664;48.112;11.662;2023-04-24T08:50:59;94747.75;;;13.85
34310;BMP280;61664;48.112;11.662;2023-04-24T08:53:26;94749.34;;;13.47
34310;BMP280;61664;48.112;11.662;2023-04-24T08:55:55;94756.91;;;13.32
34310;BMP280;61664;48.112;11.662;2023-04-24T08:58:25;94760.56;;;13.18
34310;BMP280;61664;48.112;11.662;2023-04-24T09:00:57;94761.81;;;13.22
34310;BMP280;61664;48.112;11.662;2023-04-24T09:03:27;94764.97;;;13.32
34310;BMP280;61664;48.112;11.662;2023-04-24T09:05:57;94775.44;;;13.30
34310;BMP280;61664;48.112;11.662;2023-04-24T09:08:25;94777.66;;;13.15
34310;BMP280;61664;48.112;11.662;2023-04-24T09:10:52;94754.25;;;12.87
34310;BMP280;61664;48.112;11.662;2023-04-24T09:13:20;94779.81;;;12.77
34310;BMP280;61664;48.112;11.662;2023-04-24T09:15:47;94771.31;;;12.68
34310;BMP280;61664;48.112;11.662;2023-04-24T09:18:14;94777.66;;;12.81
34310;BMP280;61664;48.112;11.662;2023-04-24T09:21:03;94772.31;;;12.93
34310;BMP280;61664;48.112;11.662;2023-04-24T09:23:31;94772.28;;;12.98
34310;BMP280;61664;48.112;11.662;2023-04-24T09:26:01;94765.47;;;12.97
34310;BMP280;61664;48.112;11.662;2023-04-24T09:28:35;94768.16;;;13.08
34310;BMP280;61664;48.112;11.662;2023-04-24T09:31:13;94762.09;;;13.02
34310;BMP280;61664;48.112;11.662;2023-04-24T09:34:03;94788.88;;;13.24
34310;BMP280;61664;48.112;11.662;2023-04-24T09:36:41;94778.13;;;13.30
34310;BMP280;61664;48.112;11.662;2023-04-24T09:39:14;94789.34;;;13.40
34310;BMP280;61664;48.112;11.662;2023-04-24T09:41:55;94759.81;;;13.51
34310;BMP280;61664;48.112;11.662;2023-04-24T09:44:27;94775.53;;;13.93
34310;BMP280;61664;48.112;11.662;2023-04-24T09:46:57;94780.81;;;14.21
34310;BMP280;61664;48.112;11.662;2023-04-24T09:49:33;94783.88;;;14.42
34310;BMP280;61664;48.112;11.662;2023-04-24T09:52:06;94784.91;;;14.69
34310;BMP280;61664;48.112;11.662;2023-04-24T09:54:33;94776.00;;;14.85
34310;BMP280;61664;48.112;11.662;2023-04-24T09:57:00;94763.72;;;14.90
34310;BMP280;61664;48.112;11.662;2023-04-24T09:59:28;94762.66;;;15.04
34310;BMP280;61664;48.112;11.662;2023-04-24T10:01:55;94769.94;;;15.09
34310;BMP280;61664;48.112;11.662;2023-04-24T10:04:27;94761.31;;;15.16
34310;BMP280;61664;48.112;11.662;2023-04-24T10:06:56;94742.19;;;15.20
34310;BMP280;61664;48.112;11.662;2023-04-24T10:09:26;94760.81;;;15.42
34310;BMP280;61664;48.112;11.662;2023-04-24T10:11:54;94777.09;;;15.55
34310;BMP280;61664;48.112;11.662;2023-04-24T10:14:24;94751.75;;;15.45
34310;BMP280;61664;48.112;11.662;2023-04-24T10:16:54;94762.41;;;15.56
34310;BMP280;61664;48.112;11.662;2023-04-24T10:19:26;94758.91;;;15.61
34310;BMP280;61664;48.112;11.662;2023-04-24T10:21:54;94763.97;;;15.89
34310;BMP280;61664;48.112;11.662;2023-04-24T10:24:22;94767.16;;;16.06
34310;BMP280;61664;48.112;11.662;2023-04-24T10:26:49;94761.72;;;16.31
34310;BMP280;61664;48.112;11.662;2023-04-24T10:29:19;94760.25;;;16.48
34310;BMP280;61664;48.112;11.662;2023-04-24T10:31:46;94755.34;;;16.47
34310;BMP280;61664;48.112;11.662;2023-04-24T10:34:16;94750.88;;;16.49
34310;BMP280;61664;48.112;11.662;2023-04-24T10:36:51;94757.34;;;16.60
34310;BMP280;61664;48.112;11.662;2023-04-24T10:39:23;94745.06;;;16.77
34310;BMP280;61664;48.112;11.662;2023-04-24T10:41:55;94743.03;;;16.83
34310;BMP280;61664;48.112;11.662;2023-04-24T10:44:24;94730.63;;;16.75
34310;BMP280;61664;48.112;11.662;2023-04-24T10:46:55;94755.25;;;16.71
34310;BMP280;61664;48.112;11.662;2023-04-24T10:49:30;94754.03;;;16.54
34310;BMP280;61664;48.112;11.662;2023-04-24T10:52:03;94738.25;;;16.26
34310;BMP280;61664;48.112;11.662;2023-04-24T10:54:45;94763.19;;;16.13
34310;BMP280;61664;48.112;11.662;2023-04-24T10:59:52;94774.00;;;15.89
34310;BMP280;61664;48.112;11.662;2023-04-24T11:02:38;94817.38;;;15.36
34310;BMP280;61664;48.112;11.662;2023-04-24T11:05:07;94806.50;;;14.58
34310;BMP280;61664;48.112;11.662;2023-04-24T11:08:14;94809.22;;;13.89
34310;BMP280;61664;48.112;11.662;2023-04-24T11:10:44;94801.03;;;13.53
34310;BMP280;61664;48.112;11.662;2023-04-24T11:13:16;94794.00;;;13.28
34310;BMP280;61664;48.112;11.662;2023-04-24T11:15:43;94766.69;;;13.13
34310;BMP280;61664;48.112;11.662;2023-04-24T11:18:16;94791.03;;;13.37
34310;BMP280;61664;48.112;11.662;2023-04-24T11:20:44;94773.72;;;13.44
34310;BMP280;61664;48.112;11.662;2023-04-24T11:23:13;94772.72;;;13.58
34310;BMP280;61664;48.112;11.662;2023-04-24T11:25:41;94778.03;;;13.75
34310;BMP280;61664;48.112;11.662;2023-04-24T11:28:14;94784.81;;;13.98
34310;BMP280;61664;48.112;11.662;2023-04-24T11:30:42;94777.66;;;14.17
34310;BMP280;61664;48.112;11.662;2023-04-24T11:33:09;94775.09;;;14.42
34310;BMP280;61664;48.112;11.662;2023-04-24T11:35:40;94790.06;;;14.67
34310;BMP280;61664;48.112;11.662;2023-04-24T11:38:07;94788.31;;;14.75
34310;BMP280;61664;48.112;11.662;2023-04-24T11:40:38;94779.75;;;14.77
34310;BMP280;61664;48.112;11.662;2023-04-24T11:43:06;94785.50;;;14.92
34310;BMP280;61664;48.112;11.662;2023-04-24T11:45:34;94784.22;;;14.98
34310;BMP280;61664;48.112;11.662;2023-04-24T11:48:03;94778.66;;;14.91
34310;BMP280;61664;48.112;11.662;2023-04-24T11:50:30;94775.91;;;14.96
34310;BMP280;61664;48.112;11.662;2023-04-24T11:52:57;94763.41;;;14.99
34310;BMP280;61664;48.112;11.662;2023-04-24T11:55:28;94778.19;;;15.17
34310;BMP280;61664;48.112;11.662;2023-04-24T11:57:58;94776.09;;;15.34
34310;BMP280;61664;48.112;11.662;2023-04-24T12:00:30;94772.47;;;15.50
34310;BMP280;61664;48.112;11.662;2023-04-24T12:03:10;94781.25;;;15.56
34310;BMP280;61664;48.112;11.662;2023-04-24T12:05:39;94766.22;;;15.42
34310;BMP280;61664;48.112;11.662;2023-04-24T12:08:06;94778.25;;;15.35
34310;BMP280;61664;48.112;11.662;2023-04-24T12:10:35;94773.75;;;15.19
34310;BMP280;61664;48.112;11.662;2023-04-24T12:13:02;94775.00;;;14.88
34310;BMP280;61664;48.112;11.662;2023-04-24T12:15:29;94780.47;;;14.77
34310;BMP280;61664;48.112;11.662;2023-04-24T12:17:57;94759.97;;;14.68
34310;BMP280;61664;48.112;11.662;2023-04-24T12:20:30;94768.16;;;14.87
34310;BMP280;61664;48.112;11.662;2023-04-24T12:23:01;94767.53;;;15.06
34310;BMP280;61664;48.112;11.662;2023-04-24T12:25:31;94758.78;;;14.99
34310;BMP280;61664;48.112;11.662;2023-04-24T12:30:34;94773.19;;;15.02
34310;BMP280;61664;48.112;11.662;2023-04-24T12:33:02;94760.50;;;14.97
34310;BMP280;61664;48.112;11.662;2023-04-24T12:35:32;94767.53;;;15.06
34310;BMP280;61664;48.112;11.662;2023-04-24T12:38:08;94764.00;;;15.16
34310;BMP280;61664;48.112;11.662;2023-04-24T12:40:35;94766.88;;;15.48
34310;BMP280;61664;48.112;11.662;2023-04-24T12:43:15;94746.84;;;15.68
34310;BMP280;61664;48.112;11.662;2023-04-24T12:45:42;94760.19;;;15.98
34310;BMP280;61664;48.112;11.662;2023-04-24T12:48:09;94754.97;;;16.05
34310;BMP280;61664;48.112;11.662;2023-04-24T12:50:36;94749.09;;;16.20
34310;BMP280;61664;48.112;11.662;2023-04-24T12:53:04;94760.75;;;16.28
34310;BMP280;61664;48.112;11.662;2023-04-24T12:55:31;94752.63;;;16.15
34310;BMP280;61664;48.112;11.662;2023-04-24T12:57:58;94767.09;;;16.12
34310;BMP280;61664;48.112;11.662;2023-04-24T13:00:25;94788.09;;;16.00
34310;BMP280;61664;48.112;11.662;2023-04-24T13:02:51;94780.13;;;16.08
34310;BMP280;61664;48.112;11.662;2023-04-24T13:05:19;94777.28;;;16.19
34310;BMP280;61664;48.112;11.662;2023-04-24T13:07:45;94779.50;;;16.21
34310;BMP280;61664;48.112;11.662;2023-04-24T13:10:12;94776.13;;;16.33
34310;BMP280;61664;48.112;11.662;2023-04-24T13:12:40;94791.06;;;16.53
34310;BMP280;61664;48.112;11.662;2023-04-24T13:15:07;94776.03;;;16.58
34310;BMP280;61664;48.112;11.662;2023-04-24T13:17:34;94781.47;;;16.71
34310;BMP280;61664;48.112;11.662;2023-04-24T13:20:01;94765.13;;;16.82
34310;BMP280;61664;48.112;11.662;2023-04-24T13:22:29;94774.16;;;16.98
34310;BMP280;61664;48.112;11.662;2023-04-24T13:24:56;94764.53;;;17.02
34310;BMP280;61664;48.112;11.662;2023-04-24T13:27:23;94773.66;;;16.99
34310;BMP280;61664;48.112;11.662;2023-04-24T13:29:50;94789.69;;;16.78
34310;BMP280;61664;48.112;11.662;2023-04-24T13:32:17;94786.19;;;16.52
34310;BMP280;61664;48.112;11.662;2023-04-24T13:34:45;94787.13;;;16.35
34310;BMP280;61664;48.112;11.662;2023-04-24T13:37:12;94795.59;;;16.26
34310;BMP280;61664;48.112;11.662;2023-04-24T13:39:40;94802.13;;;16.12
34310;BMP280;61664;48.112;11.662;2023-04-24T13:42:08;94794.84;;;16.07
34310;BMP280;61664;48.112;11.662;2023-04-24T13:44:35;94796.09;;;16.25
34310;BMP280;61664;48.112;11.662;2023-04-24T13:47:02;94792.31;;;16.84
34310;BMP280;61664;48.112;11.662;2023-04-24T13:49:29;94780.53;;;17.00
34310;BMP280;61664;48.112;11.662;2023-04-24T13:51:56;94785.34;;;16.89
34310;BMP280;61664;48.112;11.662;2023-04-24T13:54:23;94791.34;;;17.00
34310;BMP280;61664;48.112;11.662;2023-04-24T13:56:53;94779.81;;;17.26
34310;BMP280;61664;48.112;11.662;2023-04-24T13:59:20;94783.06;;;17.25
34310;BMP280;61664;48.112;11.662;2023-04-24T14:01:48;94767.16;;;17.21
34310;BMP280;61664;48.112;11.662;2023-04-24T14:04:15;94776.19;;;17.24
34310;BMP280;61664;48.112;11.662;2023-04-24T14:06:44;94767.06;;;17.13
34310;BMP280;61664;48.112;11.662;2023-04-24T14:09:11;94773.50;;;17.24
34310;BMP280;61664;48.112;11.662;2023-04-24T14:11:37;94783.34;;;17.21